sensor_id;sensor_type;location;lat;lon;timestamp;pressure;altitude;pressure_sealevel;temperature;humidity
3960;BME280;1994;48.640;8.894;2023-12-20T00:01:33;96140.34;;;6.46;92.78
3960;BME280;1994;48.640;8.894;2023-12-20T00:03:59;96129.28;;;6.45;93.37
3960;BME280;1994;48.640;8.894;2023-12-20T00:06:24;96132.44;;;6.47;93.24
3960;BME280;1994;48.640;8.894;2023-12-20T00:08:50;96140.00;;;6.36;93.90
3960;BME280;1994;48.640;8.894;2023-12-20T00:11:16;96119.44;;;6.36;94.32
3960;BME280;1994;48.640;8.894;2023-12-20T00:13:42;96108.31;;;6.42;94.54
3960;BME280;1994;48.640;8.894;2023-12-20T00:16:07;96119.03;;;6.39;95.30
3960;BME280;1994;48.640;8.894;2023-12-20T00:18:33;96122.44;;;6.33;95.71
3960;BME280;1994;48.640;8.894;2023-12-20T00:20:59;96117.81;;;6.41;95.48
3960;BME280;1994;48.640;8.894;2023-12-20T00:23:25;96113.06;;;6.38;95.70
3960;BME280;1994;48.640;8.894;2023-12-20T00:25:50;96121.41;;;6.40;95.87
3960;BME280;1994;48.640;8.894;2023-12-20T00:28:16;96113.53;;;6.29;96.68
3960;BME280;1994;48.640;8.894;2023-12-20T00:30:42;96124.09;;;6.21;97.49
3960;BME280;1994;48.640;8.894;2023-12-20T00:33:08;96114.41;;;6.16;98.52
3960;BME280;1994;48.640;8.894;2023-12-20T00:35:34;96107.31;;;6.12;99.12
3960;BME280;1994;48.640;8.894;2023-12-20T00:37:59;96115.66;;;6.07;99.56
3960;BME280;1994;48.640;8.894;2023-12-20T00:40:25;96102.16;;;6.12;99.93
3960;BME280;1994;48.640;8.894;2023-12-20T00:42:51;96095.84;;;6.08;99.99
3960;BME280;1994;48.640;8.894;2023-12-20T00:45:17;96095.50;;;5.98;100.00
3960;BME280;1994;48.640;8.894;2023-12-20T00:47:42;96093.28;;;6.08;100.00
3960;BME280;1994;48.640;8.894;2023-12-20T00:50:09;96103.00;;;6.06;100.00
3960;BME280;1994;48.640;8.894;2023-12-20T00:52:35;96097.50;;;5.96;100.00
3960;BME280;1994;48.640;8.894;2023-12-20T00:55:00;96097.06;;;5.99;100.00
3960;BME280;1994;48.640;8.894;2023-12-20T00:57:26;96092.69;;;6.06;100.00
3960;BME280;1994;48.640;8.894;2023-12-20T00:59:52;96098.25;;;6.03;100.00
3960;BME280;1994;48.640;8.894;2023-12-20T01:02:18;96100.22;;;6.07;100.00
3960;BME280;1994;48.640;8.894;2023-12-20T01:04:44;96106.16;;;6.01;100.00
3960;BME280;1994;48.640;8.894;2023-12-20T01:07:10;96106.94;;;6.02;100.00
3960;BME280;1994;48.640;8.894;2023-12-20T01:09:36;96102.06;;;5.94;100.00
3960;BME280;1994;48.640;8.894;2023-12-20T01:12:02;96105.38;;;6.01;100.00
3960;BME280;1994;48.640;8.894;2023-12-20T01:14:28;96103.84;;;5.93;100.00
3960;BME280;1994;48.640;8.894;2023-12-20T01:16:53;96107.34;;;5.99;100.00
3960;BME280;1994;48.640;8.894;2023-12-20T01:19:19;96106.56;;;6.05;100.00
3960;BME280;1994;48.640;8.894;2023-12-20T01:21:45;96110.69;;;6.06;100.00
3960;BME280;1994;48.640;8.894;2023-12-20T01:24:11;96118.81;;;6.03;100.00
3960;BME280;1994;48.640;8.894;2023-12-20T01:26:37;96111.69;;;6.05;100.00
3960;BME280;1994;48.640;8.894;2023-12-20T01:29:02;96118.25;;;6.01;100.00
3960;BME280;1994;48.640;8.894;2023-12-20T01:31:28;96108.94;;;6.00;100.00
3960;BME280;1994;48.640;8.894;2023-12-20T01:33:54;96113.66;;;6.03;100.00
3960;BME280;1994;48.640;8.894;2023-12-20T01:36:20;96118.81;;;6.03;100.00
3960;BME280;1994;48.640;8.894;2023-12-20T01:38:45;96115.66;;;6.01;100.00
3960;BME280;1994;48.640;8.894;2023-12-20T01:41:11;96110.91;;;5.98;100.00
3960;BME280;1994;48.640;8.894;2023-12-20T01:43:37;96119.34;;;6.11;100.00
3960;BME280;1994;48.640;8.894;2023-12-20T01:46:03;96114.28;;;6.05;100.00
3960;BME280;1994;48.640;8.894;2023-12-20T01:48:29;96108.53;;;6.03;100.00
3960;BME280;1994;48.640;8.894;2023-12-20T01:50:59;96118.75;;;6.16;100.00
3960;BME280;1994;48.640;8.894;2023-12-20T01:53:27;96109.63;;;6.20;100.00
3960;BME280;1994;48.640;8.894;2023-12-20T01:55:56;96099.31;;;6.26;100.00
3960;BME280;1994;48.640;8.894;2023-12-20T01:58:23;96104.09;;;6.23;100.00
3960;BME280;1994;48.640;8.894;2023-12-20T02:00:50;96099.69;;;6.30;100.00
3960;BME280;1994;48.640;8.894;2023-12-20T02:03:17;96090.72;;;6.39;100.00
3960;BME280;1994;48.640;8.894;2023-12-20T02:05:44;96094.72;;;6.28;100.00
3960;BME280;1994;48.640;8.894;2023-12-20T02:08:11;96105.41;;;6.32;100.00
3960;BME280;1994;48.640;8.894;2023-12-20T02:10:37;96107.16;;;6.38;100.00
3960;BME280;1994;48.640;8.894;2023-12-20T02:13:03;96097.72;;;6.32;100.00
3960;BME280;1994;48.640;8.894;2023-12-20T02:15:30;96103.25;;;6.29;100.00
3960;BME280;1994;48.640;8.894;2023-12-20T02:17:56;96099.72;;;6.23;100.00
3960;BME280;1994;48.640;8.894;2023-12-20T02:20:22;96096.53;;;6.28;100.00
3960;BME280;1994;48.640;8.894;2023-12-20T02:22:47;96100.88;;;6.27;100.00
3960;BME280;1994;48.640;8.894;2023-12-20T02:25:13;96096.09;;;6.31;100.00
3960;BME280;1994;48.640;8.894;2023-12-20T02:27:40;96100.09;;;6.27;100.00
3960;BME280;1994;48.640;8.894;2023-12-20T02:30:06;96106.09;;;6.21;100.00
3960;BME280;1994;48.640;8.894;2023-12-20T02:32:32;96102.84;;;6.32;100.00
3960;BME280;1994;48.640;8.894;2023-12-20T02:34:58;96101.25;;;6.31;100.00
3960;BME280;1994;48.640;8.894;2023-12-20T02:37:24;96098.09;;;6.29;100.00
3960;BME280;1994;48.640;8.894;2023-12-20T02:39:50;96101.25;;;6.31;99.97
3960;BME280;1994;48.640;8.894;2023-12-20T02:42:16;96106.09;;;6.21;100.00
3960;BME280;1994;48.640;8.894;2023-12-20T02:44:41;96103.50;;;6.21;100.00
3960;BME280;1994;48.640;8.894;2023-12-20T02:47:07;96102.69;;;6.27;100.00
3960;BME280;1994;48.640;8.894;2023-12-20T02:49:33;96102.50;;;6.22;100.00
3960;BME280;1994;48.640;8.894;2023-12-20T02:51:59;96103.50;;;6.21;100.00
3960;BME280;1994;48.640;8.894;2023-12-20T02:54:24;96109.63;;;6.20;100.00
3960;BME280;1994;48.640;8.894;2023-12-20T02:56:50;96110.06;;;6.17;100.00
3960;BME280;1994;48.640;8.894;2023-12-20T02:59:16;96103.28;;;6.22;100.00
3960;BME280;1994;48.640;8.894;2023-12-20T03:01:44;96106.47;;;6.18;100.00
3960;BME280;1994;48.640;8.894;2023-12-20T03:04:10;96104.09;;;6.23;100.00
3960;BME280;1994;48.640;8.894;2023-12-20T03:06:36;96109.63;;;6.20;100.00
3960;BME280;1994;48.640;8.894;2023-12-20T03:09:03;96113.19;;;6.19;100.00
3960;BME280;1994;48.640;8.894;2023-12-20T03:11:28;96112.38;;;6.25;100.00
3960;BME280;1994;48.640;8.894;2023-12-20T03:13:55;96118.69;;;6.29;100.00
3960;BME280;1994;48.640;8.894;2023-12-20T03:16:21;96115.19;;;6.17;100.00
3960;BME280;1994;48.640;8.894;2023-12-20T03:18:47;96123.63;;;6.30;100.00
3960;BME280;1994;48.640;8.894;2023-12-20T03:21:13;96123.44;;;6.32;100.00
3960;BME280;1994;48.640;8.894;2023-12-20T03:23:40;96108.75;;;6.39;100.00
3960;BME280;1994;48.640;8.894;2023-12-20T03:26:08;96123.16;;;6.40;100.00
3960;BME280;1994;48.640;8.894;2023-12-20T03:28:36;96122.59;;;6.38;100.00
3960;BME280;1994;48.640;8.894;2023-12-20T03:31:02;96133.72;;;6.32;100.00
3960;BME280;1994;48.640;8.894;2023-12-20T03:33:29;96136.44;;;6.37;100.00
3960;BME280;1994;48.640;8.894;2023-12-20T03:35:55;96145.31;;;6.41;100.00
3960;BME280;1994;48.640;8.894;2023-12-20T03:38:22;96137.59;;;6.41;100.00
3960;BME280;1994;48.640;8.894;2023-12-20T03:40:50;96145.94;;;6.43;99.76
3960;BME280;1994;48.640;8.894;2023-12-20T03:43:16;96146.31;;;6.40;99.75
3960;BME280;1994;48.640;8.894;2023-12-20T03:45:42;96153.25;;;6.39;99.55
3960;BME280;1994;48.640;8.894;2023-12-20T03:48:09;96148.72;;;6.35;99.31
3960;BME280;1994;48.640;8.894;2023-12-20T03:50:35;96140.06;;;6.29;99.85
3960;BME280;1994;48.640;8.894;2023-12-20T03:53:01;96146.41;;;6.27;99.60
3960;BME280;1994;48.640;8.894;2023-12-20T03:55:27;96152.28;;;6.34;99.37
3960;BME280;1994;48.640;8.894;2023-12-20T03:57:53;96144.00;;;6.32;99.67
3960;BME280;1994;48.640;8.894;2023-12-20T04:00:19;96143.56;;;6.35;99.88
3960;BME280;1994;48.640;8.894;2023-12-20T04:02:45;96151.13;;;6.30;99.01
3960;BME280;1994;48.640;8.894;2023-12-20T04:05:11;96146.41;;;6.27;99.47
3960;BME280;1994;48.640;8.894;2023-12-20T04:07:37;96150.38;;;6.23;99.50
3960;BME280;1994;48.640;8.894;2023-12-20T04:10:04;96140.91;;;6.17;99.92
3960;BME280;1994;48.640;8.894;2023-12-20T04:12:30;96147.81;;;6.23;99.64
3960;BME280;1994;48.640;8.894;2023-12-20T04:14:57;96143.69;;;6.15;99.80
3960;BME280;1994;48.640;8.894;2023-12-20T04:17:23;96141.31;;;6.14;99.71
3960;BME280;1994;48.640;8.894;2023-12-20T04:19:51;96155.16;;;6.13;100.00
3960;BME280;1994;48.640;8.894;2023-12-20T04:22:18;96154.63;;;5.98;100.00
3960;BME280;1994;48.640;8.894;2023-12-20T04:24:44;96151.69;;;5.94;100.00
3960;BME280;1994;48.640;8.894;2023-12-20T04:27:10;96147.75;;;5.85;100.00
3960;BME280;1994;48.640;8.894;2023-12-20T04:29:36;96146.16;;;5.91;100.00
3960;BME280;1994;48.640;8.894;2023-12-20T04:32:02;96140.19;;;5.97;100.00
3960;BME280;1994;48.640;8.894;2023-12-20T04:34:28;96154.09;;;5.83;100.00
3960;BME280;1994;48.640;8.894;2023-12-20T04:36:54;96150.91;;;5.74;100.00
3960;BME280;1994;48.640;8.894;2023-12-20T04:39:20;96157.28;;;5.72;100.00
3960;BME280;1994;48.640;8.894;2023-12-20T04:41:45;96160.00;;;5.77;100.00
3960;BME280;1994;48.640;8.894;2023-12-20T04:44:13;96173.28;;;5.74;100.00
3960;BME280;1994;48.640;8.894;2023-12-20T04:46:39;96171.91;;;5.65;100.00
3960;BME280;1994;48.640;8.894;2023-12-20T04:49:05;96174.66;;;5.70;100.00
3960;BME280;1994;48.640;8.894;2023-12-20T04:51:34;96166.75;;;5.71;100.00
3960;BME280;1994;48.640;8.894;2023-12-20T04:54:00;96173.47;;;5.72;100.00
3960;BME280;1994;48.640;8.894;2023-12-20T04:56:26;96180.22;;;5.60;100.00
3960;BME280;1994;48.640;8.894;2023-12-20T04:58:52;96188.50;;;5.69;100.00
3960;BME280;1994;48.640;8.894;2023-12-20T05:01:18;96177.84;;;5.65;100.00
3960;BME280;1994;48.640;8.894;2023-12-20T05:03:44;96184.53;;;5.73;100.00
3960;BME280;1994;48.640;8.894;2023-12-20T05:06:10;96186.50;;;5.71;100.00
3960;BME280;1994;48.640;8.894;2023-12-20T05:08:36;96185.34;;;5.67;100.00
3960;BME280;1994;48.640;8.894;2023-12-20T05:11:02;96191.25;;;5.67;100.00
3960;BME280;1994;48.640;8.894;2023-12-20T05:13:28;96197.59;;;5.65;100.00
3960;BME280;1994;48.640;8.894;2023-12-20T05:15:54;96206.25;;;5.77;100.00
3960;BME280;1994;48.640;8.894;2023-12-20T05:18:21;96207.47;;;5.68;100.00
3960;BME280;1994;48.640;8.894;2023-12-20T05:20:49;96212.25;;;5.58;100.00
3960;BME280;1994;48.640;8.894;2023-12-20T05:23:16;96215.19;;;5.68;100.00
3960;BME280;1994;48.640;8.894;2023-12-20T05:25:42;96213.19;;;5.70;100.00
3960;BME280;1994;48.640;8.894;2023-12-20T05:28:08;96210.81;;;5.75;100.00
3960;BME280;1994;48.640;8.894;2023-12-20T05:30:34;96211.81;;;5.74;100.00
3960;BME280;1994;48.640;8.894;2023-12-20T05:33:00;96222.28;;;5.79;100.00
3960;BME280;1994;48.640;8.894;2023-12-20T05:35:26;96220.50;;;5.86;100.00
3960;BME280;1994;48.640;8.894;2023-12-20T05:37:52;96216.94;;;5.87;100.00
3960;BME280;1994;48.640;8.894;2023-12-20T05:40:17;96221.28;;;5.93;100.00
3960;BME280;1994;48.640;8.894;2023-12-20T05:42:43;96230.97;;;5.91;100.00
3960;BME280;1994;48.640;8.894;2023-12-20T05:45:09;96233.16;;;5.94;100.00
3960;BME280;1994;48.640;8.894;2023-12-20T05:47:35;96235.50;;;5.95;100.00
3960;BME280;1994;48.640;8.894;2023-12-20T05:50:01;96239.88;;;5.95;100.00
3960;BME280;1994;48.640;8.894;2023-12-20T05:52:27;96234.56;;;5.90;100.00
3960;BME280;1994;48.640;8.894;2023-12-20T05:54:53;96236.13;;;5.97;100.00
3960;BME280;1994;48.640;8.894;2023-12-20T05:57:18;96237.13;;;5.90;100.00
3960;BME280;1994;48.640;8.894;2023-12-20T05:59:44;96235.31;;;5.97;100.00
3960;BME280;1994;48.640;8.894;2023-12-20T06:02:10;96239.06;;;6.01;100.00
3960;BME280;1994;48.640;8.894;2023-12-20T06:04:36;96241.03;;;5.99;100.00
3960;BME280;1994;48.640;8.894;2023-12-20T06:07:02;96254.69;;;6.06;100.00
3960;BME280;1994;48.640;8.894;2023-12-20T06:09:29;96255.69;;;6.05;100.00
3960;BME280;1994;48.640;8.894;2023-12-20T06:11:55;96263.97;;;6.07;100.00
3960;BME280;1994;48.640;8.894;2023-12-20T06:14:21;96263.19;;;6.06;100.00
3960;BME280;1994;48.640;8.894;2023-12-20T06:16:47;96263.59;;;6.03;100.00
3960;BME280;1994;48.640;8.894;2023-12-20T06:19:13;96258.69;;;5.89;100.00
3960;BME280;1994;48.640;8.894;2023-12-20T06:21:39;96260.84;;;5.92;100.00
3960;BME280;1994;48.640;8.894;2023-12-20T06:24:05;96253.75;;;5.81;100.00
3960;BME280;1994;48.640;8.894;2023-12-20T06:26:31;96258.06;;;5.74;100.00
3960;BME280;1994;48.640;8.894;2023-12-20T06:28:56;96260.66;;;5.74;100.00
3960;BME280;1994;48.640;8.894;2023-12-20T06:31:22;96258.47;;;5.71;100.00
3960;BME280;1994;48.640;8.894;2023-12-20T06:33:48;96261.63;;;5.73;100.00
3960;BME280;1994;48.640;8.894;2023-12-20T06:36:23;96273.50;;;5.74;100.00
3960;BME280;1994;48.640;8.894;2023-12-20T06:38:50;96267.94;;;5.77;100.00
3960;BME280;1994;48.640;8.894;2023-12-20T06:41:16;96271.13;;;5.66;100.00
3960;BME280;1994;48.640;8.894;2023-12-20T06:43:42;96282.59;;;5.70;100.00
3960;BME280;1994;48.640;8.894;2023-12-20T06:46:08;96267.97;;;5.64;100.00
3960;BME280;1994;48.640;8.894;2023-12-20T06:48:34;96265.19;;;5.59;100.00
3960;BME280;1994;48.640;8.894;2023-12-20T06:51:01;96272.53;;;5.62;100.00
3960;BME280;1994;48.640;8.894;2023-12-20T06:53:27;96275.28;;;5.67;100.00
3960;BME280;1994;48.640;8.894;2023-12-20T06:55:54;96288.91;;;5.61;100.00
3960;BME280;1994;48.640;8.894;2023-12-20T06:58:22;96288.31;;;5.65;100.00
3960;BME280;1994;48.640;8.894;2023-12-20T07:00:48;96297.63;;;5.73;100.00
3960;BME280;1994;48.640;8.894;2023-12-20T07:03:14;96297.63;;;5.73;100.00
3960;BME280;1994;48.640;8.894;2023-12-20T07:05:39;96300.38;;;5.78;100.00
3960;BME280;1994;48.640;8.894;2023-12-20T07:08:06;96306.34;;;5.85;100.00
3960;BME280;1994;48.640;8.894;2023-12-20T07:10:32;96298.03;;;5.83;100.00
3960;BME280;1994;48.640;8.894;2023-12-20T07:12:58;96300.78;;;5.88;100.00
3960;BME280;1994;48.640;8.894;2023-12-20T07:15:24;96311.06;;;5.88;100.00
3960;BME280;1994;48.640;8.894;2023-12-20T07:17:50;96304.34;;;5.87;100.00
3960;BME280;1994;48.640;8.894;2023-12-20T07:20:15;96307.91;;;5.92;100.00
3960;BME280;1994;48.640;8.894;2023-12-20T07:22:41;96323.50;;;6.04;100.00
3960;BME280;1994;48.640;8.894;2023-12-20T07:25:08;96317.41;;;6.05;100.00
3960;BME280;1994;48.640;8.894;2023-12-20T07:27:34;96320.75;;;6.12;100.00
3960;BME280;1994;48.640;8.894;2023-12-20T07:29:59;96328.03;;;6.15;100.00
3960;BME280;1994;48.640;8.894;2023-12-20T07:32:25;96340.13;;;6.21;100.00
3960;BME280;1994;48.640;8.894;2023-12-20T07:34:51;96343.06;;;6.18;100.00
3960;BME280;1994;48.640;8.894;2023-12-20T07:37:17;96342.28;;;6.17;100.00
3960;BME280;1994;48.640;8.894;2023-12-20T07:39:43;96341.69;;;6.22;100.00
3960;BME280;1994;48.640;8.894;2023-12-20T07:42:09;96346.63;;;6.23;100.00
3960;BME280;1994;48.640;8.894;2023-12-20T07:44:35;96343.47;;;6.21;100.00
3960;BME280;1994;48.640;8.894;2023-12-20T07:47:04;96345.06;;;6.16;100.00
3960;BME280;1994;48.640;8.894;2023-12-20T07:49:31;96346.66;;;6.17;100.00
3960;BME280;1994;48.640;8.894;2023-12-20T07:51:57;96358.91;;;6.15;100.00
3960;BME280;1994;48.640;8.894;2023-12-20T07:54:23;96358.50;;;6.18;100.00
3960;BME280;1994;48.640;8.894;2023-12-20T07:56:49;96360.09;;;6.19;100.00
3960;BME280;1994;48.640;8.894;2023-12-20T07:59:15;96357.91;;;6.29;100.00
3960;BME280;1994;48.640;8.894;2023-12-20T08:01:41;96364.66;;;6.17;100.00
3960;BME280;1994;48.640;8.894;2023-12-20T08:04:08;96356.94;;;6.04;100.00
3960;BME280;1994;48.640;8.894;2023-12-20T08:06:33;96359.31;;;6.05;100.00
3960;BME280;1994;48.640;8.894;2023-12-20T08:08:59;96359.69;;;6.09;100.00
3960;BME280;1994;48.640;8.894;2023-12-20T08:11:25;96360.09;;;6.06;100.00
3960;BME280;1994;48.640;8.894;2023-12-20T08:13:51;96363.84;;;6.10;100.00
3960;BME280;1994;48.640;8.894;2023-12-20T08:16:17;96360.88;;;6.13;100.00
3960;BME280;1994;48.640;8.894;2023-12-20T08:18:43;96362.84;;;6.24;100.00
3960;BME280;1994;48.640;8.894;2023-12-20T08:21:09;96359.28;;;6.25;100.00
3960;BME280;1994;48.640;8.894;2023-12-20T08:23:35;96361.28;;;6.23;100.00
3960;BME280;1994;48.640;8.894;2023-12-20T08:26:07;96366.41;;;6.10;100.00
3960;BME280;1994;48.640;8.894;2023-12-20T08:28:34;96372.75;;;6.01;100.00
3960;BME280;1994;48.640;8.894;2023-12-20T08:31:00;96383.06;;;6.07;100.00
3960;BME280;1994;48.640;8.894;2023-12-20T08:33:26;96389.16;;;6.13;100.00
3960;BME280;1994;48.640;8.894;2023-12-20T08:35:52;96394.91;;;6.15;100.00
3960;BME280;1994;48.640;8.894;2023-12-20T08:38:18;96400.03;;;6.15;100.00
3960;BME280;1994;48.640;8.894;2023-12-20T08:40:44;96399.66;;;6.18;98.82
3960;BME280;1994;48.640;8.894;2023-12-20T08:43:10;96398.09;;;6.17;97.52
3960;BME280;1994;48.640;8.894;2023-12-20T08:45:36;96402.81;;;6.20;94.38
3960;BME280;1994;48.640;8.894;2023-12-20T08:48:02;96397.25;;;6.36;91.40
3960;BME280;1994;48.640;8.894;2023-12-20T08:50:29;96410.06;;;6.62;90.04
3960;BME280;1994;48.640;8.894;2023-12-20T08:52:55;96423.28;;;6.85;88.97
3960;BME280;1994;48.640;8.894;2023-12-20T08:55:21;96424.03;;;6.98;86.23
3960;BME280;1994;48.640;8.894;2023-12-20T08:57:46;96431.88;;;7.23;85.69
3960;BME280;1994;48.640;8.894;2023-12-20T09:00:13;96427.34;;;7.18;83.31
3960;BME280;1994;48.640;8.894;2023-12-20T09:02:39;96417.03;;;7.18;85.19
3960;BME280;1994;48.640;8.894;2023-12-20T09:05:05;96423.94;;;7.18;85.47
3960;BME280;1994;48.640;8.894;2023-12-20T09:07:31;96426.16;;;7.08;85.98
3960;BME280;1994;48.640;8.894;2023-12-20T09:09:58;96422.75;;;6.70;85.87
3960;BME280;1994;48.640;8.894;2023-12-20T09:12:24;96420.38;;;6.62;85.61
3960;BME280;1994;48.640;8.894;2023-12-20T09:14:51;96411.06;;;6.61;86.43
3960;BME280;1994;48.640;8.894;2023-12-20T09:17:18;96410.31;;;6.41;86.30
3960;BME280;1994;48.640;8.894;2023-12-20T09:19:44;96410.72;;;6.31;85.64
3960;BME280;1994;48.640;8.894;2023-12-20T09:22:10;96406.78;;;6.29;86.69
3960;BME280;1994;48.640;8.894;2023-12-20T09:24:36;96407.91;;;7.53;84.11
3960;BME280;1994;48.640;8.894;2023-12-20T09:27:07;96406.22;;;9.06;76.05
3960;BME280;1994;48.640;8.894;2023-12-20T09:29:33;96411.00;;;10.09;69.75
3960;BME280;1994;48.640;8.894;2023-12-20T09:31:59;96408.03;;;10.97;67.83
3960;BME280;1994;48.640;8.894;2023-12-20T09:34:24;96418.09;;;11.45;65.59
3960;BME280;1994;48.640;8.894;2023-12-20T09:36:51;96412.31;;;11.82;63.65
3960;BME280;1994;48.640;8.894;2023-12-20T09:39:19;96418.69;;;12.08;61.30
3960;BME280;1994;48.640;8.894;2023-12-20T09:41:53;96420.34;;;12.14;60.81
3960;BME280;1994;48.640;8.894;2023-12-20T09:44:24;96423.53;;;12.16;60.51
3960;BME280;1994;48.640;8.894;2023-12-20T09:46:50;96422.34;;;12.40;59.17
3960;BME280;1994;48.640;8.894;2023-12-20T09:49:21;96417.38;;;12.55;59.14
3960;BME280;1994;48.640;8.894;2023-12-20T09:51:48;96423.44;;;12.98;56.10
3960;BME280;1994;48.640;8.894;2023-12-20T09:54:17;96432.97;;;13.31;55.38
3960;BME280;1994;48.640;8.894;2023-12-20T09:56:44;96430.97;;;13.86;54.78
3960;BME280;1994;48.640;8.894;2023-12-20T09:59:10;96439.69;;;14.23;53.60
3960;BME280;1994;48.640;8.894;2023-12-20T10:01:36;96433.56;;;13.38;55.31
3960;BME280;1994;48.640;8.894;2023-12-20T10:04:09;96427.28;;;12.25;56.89
3960;BME280;1994;48.640;8.894;2023-12-20T10:06:41;96425.91;;;11.22;60.35
3960;BME280;1994;48.640;8.894;2023-12-20T10:09:08;96429.63;;;10.75;62.32
3960;BME280;1994;48.640;8.894;2023-12-20T10:11:36;96426.44;;;10.27;64.17
3960;BME280;1994;48.640;8.894;2023-12-20T10:14:03;96421.78;;;10.06;64.92
3960;BME280;1994;48.640;8.894;2023-12-20T10:16:30;96420.03;;;9.77;65.95
3960;BME280;1994;48.640;8.894;2023-12-20T10:18:56;96420.81;;;9.48;65.71
3960;BME280;1994;48.640;8.894;2023-12-20T10:21:23;96416.13;;;9.09;67.42
3960;BME280;1994;48.640;8.894;2023-12-20T10:23:50;96417.13;;;9.26;68.48
3960;BME280;1994;48.640;8.894;2023-12-20T10:26:23;96410.97;;;9.68;64.29
3960;BME280;1994;48.640;8.894;2023-12-20T10:29:00;96407.03;;;9.36;64.84
3960;BME280;1994;48.640;8.894;2023-12-20T10:31:30;96396.47;;;8.90;66.85
3960;BME280;1994;48.640;8.894;2023-12-20T10:34:01;96384.84;;;8.63;68.38
3960;BME280;1994;48.640;8.894;2023-12-20T10:36:30;96384.75;;;8.33;68.85
3960;BME280;1994;48.640;8.894;2023-12-20T10:38:57;96383.06;;;8.21;69.37
3960;BME280;1994;48.640;8.894;2023-12-20T10:41:29;96375.94;;;8.16;70.42
3960;BME280;1994;48.640;8.894;2023-12-20T10:44:03;96370.94;;;7.97;71.14
3960;BME280;1994;48.640;8.894;2023-12-20T10:46:30;96379.09;;;7.94;70.87
3960;BME280;1994;48.640;8.894;2023-12-20T10:48:58;96389.00;;;7.97;71.30
3960;BME280;1994;48.640;8.894;2023-12-20T10:51:25;96373.09;;;8.00;71.07
3960;BME280;1994;48.640;8.894;2023-12-20T10:53:53;96385.81;;;7.95;70.28
3960;BME280;1994;48.640;8.894;2023-12-20T10:56:20;96378.34;;;7.87;70.57
3960;BME280;1994;48.640;8.894;2023-12-20T10:58:52;96375.91;;;7.98;69.88
3960;BME280;1994;48.640;8.894;2023-12-20T11:01:19;96370.72;;;7.98;70.32
3960;BME280;1994;48.640;8.894;2023-12-20T11:03:53;96376.81;;;7.79;71.56
3960;BME280;1994;48.640;8.894;2023-12-20T11:06:47;96383.88;;;7.90;71.17
3960;BME280;1994;48.640;8.894;2023-12-20T11:09:31;96380.44;;;7.72;71.37
3960;BME280;1994;48.640;8.894;2023-12-20T11:12:20;96388.00;;;7.67;70.17
3960;BME280;1994;48.640;8.894;2023-12-20T11:14:51;96384.38;;;7.74;70.38
3960;BME280;1994;48.640;8.894;2023-12-20T11:17:18;96379.44;;;7.97;69.95
3960;BME280;1994;48.640;8.894;2023-12-20T11:20:05;96391.28;;;8.05;69.16
3960;BME280;1994;48.640;8.894;2023-12-20T11:22:32;96378.34;;;7.87;68.20
3960;BME280;1994;48.640;8.894;2023-12-20T11:25:04;96372.03;;;7.83;69.34
3960;BME280;1994;48.640;8.894;2023-12-20T11:27:32;96369.75;;;8.24;68.36
3960;BME280;1994;48.640;8.894;2023-12-20T11:29:58;96372.78;;;8.39;67.45
3960;BME280;1994;48.640;8.894;2023-12-20T11:34:57;96369.94;;;7.98;67.05
3960;BME280;1994;48.640;8.894;2023-12-20T11:37:30;96371.25;;;7.82;68.17
3960;BME280;1994;48.640;8.894;2023-12-20T11:42:37;96362.34;;;7.47;70.13
3960;BME280;1994;48.640;8.894;2023-12-20T11:45:04;96365.81;;;7.35;70.96
3960;BME280;1994;48.640;8.894;2023-12-20T11:47:31;96362.91;;;7.25;71.23
3960;BME280;1994;48.640;8.894;2023-12-20T11:49:57;96372.22;;;7.26;70.14
3960;BME280;1994;48.640;8.894;2023-12-20T11:52:23;96372.59;;;7.23;70.68
3960;BME280;1994;48.640;8.894;2023-12-20T11:54:49;96381.19;;;7.10;72.72
3960;BME280;1994;48.640;8.894;2023-12-20T11:57:15;96373.31;;;6.99;72.45
3960;BME280;1994;48.640;8.894;2023-12-20T11:59:43;96373.91;;;7.01;71.83
3960;BME280;1994;48.640;8.894;2023-12-20T12:02:11;96367.75;;;7.02;72.81
3960;BME280;1994;48.640;8.894;2023-12-20T12:04:37;96366.19;;;7.01;71.22
3960;BME280;1994;48.640;8.894;2023-12-20T12:07:03;96367.00;;;6.95;72.50
3960;BME280;1994;48.640;8.894;2023-12-20T12:09:29;96352.56;;;6.87;72.75
3960;BME280;1994;48.640;8.894;2023-12-20T12:11:55;96341.31;;;6.82;73.06
3960;BME280;1994;48.640;8.894;2023-12-20T12:14:21;96346.19;;;7.03;71.74
3960;BME280;1994;48.640;8.894;2023-12-20T12:16:47;96343.81;;;7.01;71.23
3960;BME280;1994;48.640;8.894;2023-12-20T12:19:26;96338.41;;;7.09;71.12
3960;BME280;1994;48.640;8.894;2023-12-20T12:24:32;96343.53;;;7.16;71.19
3960;BME280;1994;48.640;8.894;2023-12-20T12:26:58;96347.94;;;7.09;71.72
3960;BME280;1994;48.640;8.894;2023-12-20T12:29:24;96340.78;;;7.11;71.16
3960;BME280;1994;48.640;8.894;2023-12-20T12:31:50;96327.25;;;7.22;71.29
3960;BME280;1994;48.640;8.894;2023-12-20T12:34:17;96333.22;;;7.16;70.67
3960;BME280;1994;48.640;8.894;2023-12-20T12:36:43;96336.81;;;7.15;71.22
3960;BME280;1994;48.640;8.894;2023-12-20T12:39:12;96336.19;;;7.13;71.47
3960;BME280;1994;48.640;8.894;2023-12-20T12:41:41;96321.34;;;7.15;71.81
3960;BME280;1994;48.640;8.894;2023-12-20T12:44:07;96320.16;;;7.11;72.26
3960;BME280;1994;48.640;8.894;2023-12-20T12:46:33;96319.66;;;6.96;71.69
3960;BME280;1994;48.640;8.894;2023-12-20T12:48:59;96328.06;;;7.16;71.24
3960;BME280;1994;48.640;8.894;2023-12-20T12:51:25;96320.19;;;7.42;71.20
3960;BME280;1994;48.640;8.894;2023-12-20T12:53:51;96321.09;;;7.54;70.39
3960;BME280;1994;48.640;8.894;2023-12-20T12:56:17;96333.31;;;7.65;69.80
3960;BME280;1994;48.640;8.894;2023-12-20T12:58:43;96322.88;;;7.78;69.23
3960;BME280;1994;48.640;8.894;2023-12-20T13:01:09;96329.50;;;7.92;68.84
3960;BME280;1994;48.640;8.894;2023-12-20T13:03:35;96329.81;;;8.02;68.23
3960;BME280;1994;48.640;8.894;2023-12-20T13:06:01;96325.53;;;8.38;68.15
3960;BME280;1994;48.640;8.894;2023-12-20T13:08:29;96321.72;;;8.59;66.98
3960;BME280;1994;48.640;8.894;2023-12-20T13:10:55;96317.47;;;8.82;65.98
3960;BME280;1994;48.640;8.894;2023-12-20T13:13:22;96319.63;;;8.85;66.04
3960;BME280;1994;48.640;8.894;2023-12-20T13:15:49;96315.94;;;8.93;65.40
3960;BME280;1994;48.640;8.894;2023-12-20T13:18:18;96311.25;;;8.72;66.00
3960;BME280;1994;48.640;8.894;2023-12-20T13:20:44;96310.47;;;8.71;65.63
3960;BME280;1994;48.640;8.894;2023-12-20T13:23:10;96313.13;;;8.65;65.14
3960;BME280;1994;48.640;8.894;2023-12-20T13:25:36;96323.03;;;8.50;66.26
3960;BME280;1994;48.640;8.894;2023-12-20T13:28:02;96330.19;;;8.48;65.83
3960;BME280;1994;48.640;8.894;2023-12-20T13:30:30;96327.75;;;8.53;65.95
3960;BME280;1994;48.640;8.894;2023-12-20T13:32:56;96317.13;;;8.43;66.37